Flight Briefing for CPX201

Departure Arrival
Miami International Airport (KMIA)
Click to view FAA NOTAMS
Washington Dulles International Airport (KIAD)
Click to view FAA NOTAMS
Departure Time Arrival Time
N/A N/A
Aircraft Distance
B767-300BDSF 894nm
Departure METAR Arrival METAR
KMIA 200838Z 32006KT 10SM BKN004 BKN031 BKN050 OVC130 18/18 A2995 RMK AO2 RAE02 P0000 T01830183 KIAD 200752Z 10003KT 10SM BKN250 M02/M06 A3038 RMK AO2 SLP289 T10221061
Suggested Route
HEDLY2 HEDLY ORL J53 CRG J55 SAV FLO J207 RDU DORRN CAVLR3


View recent IFR Routes data
Notes



Charts and Procedures

Charts for KMIA
No chart available
Charts for KIAD
No chart available

Windy.com Weather Map